Time;durP1;ratioP1;P1;durP2;ratioP2;P2;SDS_P1;SDS_P2;PMS_P1;PMS_P2;Temp;Humidity;BMP_temperature;BMP_pressure;BME280_temperature;BME280_humidity;BME280_pressure;Samples;Min_cycle;Max_cycle;Signal;HPM_P1;HPM_P2
2022/06/10 00:00:30;;;;;;;3.15;1.58;;;13.30;99.90;;;;;;5021714;28;20508;-68
2022/06/10 00:02:56;;;;;;;7.00;1.80;;;13.30;99.90;;;;;;5021889;28;20022;-69
2022/06/10 00:05:25;;;;;;;2.38;1.20;;;13.30;99.90;;;;;;5021575;28;20036;-70
2022/06/10 00:07:52;;;;;;;2.58;1.40;;;13.30;99.90;;;;;;5021089;28;20029;-70
2022/06/10 00:10:23;;;;;;;4.30;2.10;;;13.30;99.90;;;;;;5021469;28;20026;-69
2022/06/10 00:12:49;;;;;;;3.35;1.88;;;13.30;99.90;;;;;;5022126;28;20057;-68
2022/06/10 00:15:16;;;;;;;3.75;1.75;;;13.30;99.90;;;;;;5025174;28;20080;-69
2022/06/10 00:17:42;;;;;;;4.50;2.05;;;13.30;99.90;;;;;;5025443;28;20041;-69
2022/06/10 00:20:11;;;;;;;3.55;1.92;;;13.20;99.90;;;;;;5026072;28;20466;-69
2022/06/10 00:22:37;;;;;;;5.05;2.00;;;13.20;99.90;;;;;;5024994;28;20045;-69
2022/06/10 00:25:03;;;;;;;13.82;2.05;;;13.20;99.90;;;;;;5025471;28;20493;-69
2022/06/10 00:27:29;;;;;;;7.45;2.53;;;13.20;99.90;;;;;;5025743;28;20033;-71
2022/06/10 00:29:55;;;;;;;5.78;1.15;;;13.10;99.90;;;;;;5024733;28;20022;-70
2022/06/10 00:32:20;;;;;;;3.13;1.77;;;13.10;99.90;;;;;;5025649;28;20082;-70
2022/06/10 00:34:46;;;;;;;3.08;1.67;;;13.10;99.90;;;;;;5025541;28;20065;-70
2022/06/10 00:37:11;;;;;;;5.35;2.03;;;13.00;99.90;;;;;;5025211;28;20661;-69
2022/06/10 00:39:37;;;;;;;3.47;1.65;;;13.00;99.90;;;;;;5025572;28;20045;-69
2022/06/10 00:42:05;;;;;;;3.35;1.70;;;13.00;99.90;;;;;;5025032;28;20131;-69
2022/06/10 00:44:45;;;;;;;2.67;1.67;;;12.90;99.90;;;;;;5024592;28;20228;-68
2022/06/10 00:47:34;;;;;;;3.38;2.13;;;12.90;99.90;;;;;;5025191;28;20029;-70
2022/06/10 00:50:13;;;;;;;7.07;2.30;;;12.90;99.90;;;;;;5012680;28;20034;-70
2022/06/10 00:52:51;;;;;;;3.95;1.77;;;12.90;99.90;;;;;;5024981;28;20053;-69
2022/06/10 00:55:28;;;;;;;6.18;2.35;;;12.70;99.90;;;;;;5025581;28;20029;-71
2022/06/10 00:58:07;;;;;;;4.20;2.30;;;12.60;99.90;;;;;;5023768;28;20045;-69
2022/06/10 01:00:35;;;;;;;4.95;2.20;;;12.60;99.90;;;;;;5024378;28;20076;-68
2022/06/10 01:03:02;;;;;;;4.88;2.05;;;12.60;99.90;;;;;;5024432;28;20018;-69
2022/06/10 01:05:28;;;;;;;4.00;1.98;;;12.60;99.90;;;;;;5024794;28;20084;-69
2022/06/10 01:08:15;;;;;;;6.22;3.15;;;12.60;99.90;;;;;;5024774;28;20109;-68
2022/06/10 01:11:01;;;;;;;3.28;2.28;;;12.60;99.90;;;;;;5024259;28;20061;-70
2022/06/10 01:14:07;;;;;;;7.22;3.35;;;12.60;99.90;;;;;;5006560;28;20516;-70
2022/06/10 01:16:48;;;;;;;7.07;2.30;;;12.60;99.90;;;;;;5024439;28;20128;-69
2022/06/10 01:19:40;;;;;;;6.10;2.75;;;12.60;99.90;;;;;;5024354;28;20026;-68
2022/06/10 01:22:38;;;;;;;7.40;3.35;;;12.60;99.90;;;;;;5024171;28;20068;-69
2022/06/10 01:25:43;;;;;;;5.35;2.60;;;12.60;99.90;;;;;;5023552;28;20111;-69
2022/06/10 01:28:26;;;;;;;4.03;2.20;;;12.50;99.90;;;;;;5024108;28;20093;-69
2022/06/10 01:31:20;;;;;;;3.35;2.17;;;12.50;99.90;;;;;;5024349;28;20038;-70
2022/06/10 01:34:07;;;;;;;5.13;2.50;;;12.50;99.90;;;;;;5024238;28;20034;-70
2022/06/10 01:36:44;;;;;;;7.03;2.85;;;12.40;99.90;;;;;;5023824;28;20026;-70
2022/06/10 01:39:15;;;;;;;12.48;2.70;;;12.50;99.90;;;;;;5024188;28;20048;-69
2022/06/10 01:41:50;;;;;;;3.97;2.00;;;12.40;99.90;;;;;;5024281;28;20384;-69
2022/06/10 01:44:29;;;;;;;5.65;2.70;;;12.40;99.90;;;;;;5023749;28;20085;-70
2022/06/10 01:47:19;;;;;;;2.58;1.83;;;12.40;99.90;;;;;;5023659;28;20038;-68
2022/06/10 01:50:06;;;;;;;4.32;2.58;;;12.40;99.90;;;;;;5024636;28;20025;-69
2022/06/10 01:52:48;;;;;;;6.28;2.03;;;12.40;99.90;;;;;;5024019;28;20038;-70
2022/06/10 01:55:19;;;;;;;4.72;2.75;;;12.40;99.90;;;;;;5024052;28;20030;-70
2022/06/10 01:57:57;;;;;;;7.97;3.00;;;12.40;99.90;;;;;;5023875;28;20127;-70
2022/06/10 02:00:28;;;;;;;4.85;2.92;;;12.40;99.90;;;;;;5023589;28;20049;-70
2022/06/10 02:03:28;;;;;;;5.18;2.50;;;12.30;99.90;;;;;;5005702;28;20419;-70
2022/06/10 02:06:14;;;;;;;3.22;2.17;;;12.30;99.90;;;;;;5023449;28;20036;-70
2022/06/10 02:08:48;;;;;;;7.82;3.40;;;12.30;99.90;;;;;;5023244;28;20025;-69
2022/06/10 02:11:17;;;;;;;7.15;2.30;;;12.30;99.90;;;;;;5023653;28;20538;-69
2022/06/10 02:13:54;;;;;;;3.90;2.03;;;12.20;99.90;;;;;;5023285;28;20018;-69
2022/06/10 02:16:36;;;;;;;5.45;2.58;;;12.20;99.90;;;;;;5023332;28;20034;-70
2022/06/10 02:19:28;;;;;;;5.78;2.92;;;12.10;99.90;;;;;;5023024;28;20026;-70
2022/06/10 02:21:57;;;;;;;3.97;2.47;;;12.10;99.90;;;;;;5023312;28;20081;-69
2022/06/10 02:24:37;;;;;;;4.93;2.42;;;12.10;99.90;;;;;;5022933;28;20072;-70
2022/06/10 02:27:17;;;;;;;6.57;2.60;;;12.00;99.90;;;;;;5022980;28;20033;-69
2022/06/10 02:29:53;;;;;;;14.73;3.08;;;12.00;99.90;;;;;;5023108;28;20041;-69
2022/06/10 02:32:19;;;;;;;5.43;2.55;;;12.00;99.90;;;;;;5023504;28;20029;-70
2022/06/10 02:34:46;;;;;;;6.82;3.10;;;12.00;99.90;;;;;;5022364;28;20040;-71
2022/06/10 02:37:35;;;;;;;5.97;2.83;;;12.00;99.90;;;;;;5023251;28;20026;-69
2022/06/10 02:40:18;;;;;;;5.82;2.92;;;12.00;99.90;;;;;;5022918;28;20036;-68
2022/06/10 02:43:21;;;;;;;6.85;2.83;;;12.00;99.90;;;;;;5023281;28;20133;-69
2022/06/10 02:45:57;;;;;;;6.38;3.25;;;12.00;99.90;;;;;;5022801;28;20048;-71
2022/06/10 02:48:23;;;;;;;5.22;2.72;;;11.80;99.90;;;;;;5022496;28;20032;-69
2022/06/10 02:50:49;;;;;;;4.30;3.15;;;11.90;99.90;;;;;;5023094;28;20032;-70
2022/06/10 02:53:15;;;;;;;4.25;2.67;;;11.80;99.90;;;;;;5023141;28;20121;-69
2022/06/10 02:55:41;;;;;;;4.93;3.13;;;11.80;99.90;;;;;;5022498;28;20371;-70
2022/06/10 03:01:20;;;;;;;9.75;3.33;;;11.80;99.90;;;;;;5022254;28;20029;-70
2022/06/10 03:04:04;;;;;;;15.50;3.05;;;11.80;99.90;;;;;;5022462;28;20029;-69
2022/06/10 03:06:57;;;;;;;7.72;2.72;;;11.80;99.90;;;;;;5022219;28;20042;-69
2022/06/10 03:09:26;;;;;;;5.30;2.85;;;11.70;99.90;;;;;;5022108;28;20026;-70
2022/06/10 03:12:02;;;;;;;7.35;3.42;;;11.70;99.90;;;;;;5022510;28;20029;-69
2022/06/10 03:14:33;;;;;;;10.40;3.45;;;11.70;99.90;;;;;;5021934;28;20113;-70
2022/06/10 03:17:11;;;;;;;5.30;2.67;;;11.70;99.90;;;;;;5021860;28;20065;-70
2022/06/10 03:19:52;;;;;;;9.88;2.92;;;11.70;99.90;;;;;;5022488;28;20034;-69
2022/06/10 03:22:57;;;;;;;5.50;2.70;;;11.70;99.90;;;;;;5022277;28;20057;-70
2022/06/10 03:25:26;;;;;;;7.85;3.17;;;11.70;99.90;;;;;;5022249;28;20040;-71
2022/06/10 03:27:58;;;;;;;7.45;3.63;;;11.70;99.90;;;;;;5022331;28;20030;-69
2022/06/10 03:30:30;;;;;;;8.75;4.38;;;11.70;99.90;;;;;;5021575;28;20049;-69
2022/06/10 03:33:15;;;;;;;6.00;3.13;;;11.70;99.90;;;;;;5022305;28;20026;-69
2022/06/10 03:35:46;;;;;;;11.77;3.78;;;11.70;99.90;;;;;;5022227;28;20029;-69
2022/06/10 03:38:12;;;;;;;6.32;3.35;;;11.70;99.90;;;;;;5021683;28;20044;-70
2022/06/10 03:40:38;;;;;;;5.82;3.53;;;11.70;99.90;;;;;;5022406;28;20018;-70
2022/06/10 03:43:06;;;;;;;6.00;3.17;;;11.80;99.90;;;;;;5022017;28;20034;-69
2022/06/10 03:45:40;;;;;;;8.52;3.72;;;11.80;99.90;;;;;;5021574;28;20068;-71
2022/06/10 03:48:07;;;;;;;8.05;3.90;;;11.90;99.90;;;;;;5021155;28;20049;-70
2022/06/10 03:50:38;;;;;;;12.82;4.00;;;11.80;99.90;;;;;;5021479;28;20052;-69
2022/06/10 03:53:04;;;;;;;8.23;3.65;;;11.90;99.90;;;;;;5022084;28;20014;-69
2022/06/10 03:55:30;;;;;;;5.57;3.70;;;11.90;99.90;;;;;;5021885;28;20018;-69
2022/06/10 03:57:55;;;;;;;14.77;3.88;;;11.80;99.90;;;;;;5021558;28;20513;-70
2022/06/10 04:00:24;;;;;;;6.78;4.05;;;11.90;99.90;;;;;;5022198;28;20029;-69
2022/06/10 04:02:51;;;;;;;6.07;3.55;;;11.90;99.90;;;;;;5020188;28;20030;-69
2022/06/10 04:05:17;;;;;;;8.63;4.05;;;11.90;99.90;;;;;;5021781;28;20038;-71
2022/06/10 04:07:44;;;;;;;8.43;4.15;;;11.90;99.90;;;;;;5022246;28;20033;-69
2022/06/10 04:10:17;;;;;;;8.25;4.00;;;12.00;99.90;;;;;;5021145;28;20052;-70
2022/06/10 04:12:42;;;;;;;6.90;3.47;;;12.00;99.90;;;;;;5022080;28;20025;-70
2022/06/10 04:15:10;;;;;;;11.02;4.05;;;12.00;99.90;;;;;;5021971;28;20080;-70
2022/06/10 04:17:35;;;;;;;8.55;3.78;;;12.00;99.90;;;;;;5021198;28;20058;-70
2022/06/10 04:20:01;;;;;;;5.50;3.33;;;12.00;99.90;;;;;;5022006;28;20041;-70
2022/06/10 04:22:27;;;;;;;8.95;3.70;;;12.10;99.90;;;;;;5020819;28;20030;-71
2022/06/10 04:24:54;;;;;;;8.82;3.17;;;12.10;99.90;;;;;;5018904;28;20060;-72
2022/06/10 04:27:20;;;;;;;4.53;2.80;;;12.10;99.90;;;;;;5021192;28;20386;-71
2022/06/10 04:29:46;;;;;;;6.18;3.40;;;12.10;99.90;;;;;;5021616;28;20038;-71
2022/06/10 04:32:12;;;;;;;4.85;2.85;;;12.10;99.90;;;;;;5021103;28;20038;-71
2022/06/10 04:34:37;;;;;;;4.60;3.33;;;12.10;99.90;;;;;;5021785;28;20033;-71
2022/06/10 04:37:04;;;;;;;7.30;3.30;;;12.20;99.90;;;;;;5021383;28;20032;-71
2022/06/10 04:39:30;;;;;;;7.45;3.65;;;12.20;99.90;;;;;;5020350;28;20026;-70
2022/06/10 04:41:56;;;;;;;12.70;3.58;;;12.20;99.90;;;;;;5021727;28;20041;-71
2022/06/10 04:44:22;;;;;;;3.42;2.22;;;12.30;99.90;;;;;;5020621;28;20026;-71
2022/06/10 04:46:48;;;;;;;5.75;2.80;;;12.30;99.90;;;;;;5019117;28;20090;-71
2022/06/10 04:49:14;;;;;;;7.57;3.55;;;12.40;99.90;;;;;;5021434;28;20038;-71
2022/06/10 04:51:41;;;;;;;4.82;2.80;;;12.40;99.90;;;;;;5020797;28;20058;-71
2022/06/10 04:54:08;;;;;;;14.70;4.22;;;12.40;99.90;;;;;;5020923;28;20030;-70
2022/06/10 04:56:34;;;;;;;14.73;4.05;;;12.50;99.90;;;;;;5019544;28;20033;-71
2022/06/10 04:59:00;;;;;;;12.10;3.95;;;12.50;99.90;;;;;;5009829;28;20088;-73
2022/06/10 05:01:26;;;;;;;7.60;3.38;;;12.60;99.90;;;;;;5017440;28;20045;-70
2022/06/10 05:03:52;;;;;;;11.02;3.72;;;12.60;99.90;;;;;;5021630;28;20025;-71
2022/06/10 05:06:18;;;;;;;4.50;2.53;;;12.70;99.90;;;;;;5021643;28;20064;-71
2022/06/10 05:08:44;;;;;;;6.05;3.40;;;12.80;99.90;;;;;;5024273;28;20025;-70
2022/06/10 05:11:09;;;;;;;7.50;3.78;;;12.80;99.90;;;;;;5023514;28;20459;-71
2022/06/10 05:13:36;;;;;;;6.30;3.28;;;12.80;99.90;;;;;;5023339;28;20033;-71
2022/06/10 05:16:03;;;;;;;7.07;3.17;;;12.80;99.90;;;;;;5021994;28;20026;-71
2022/06/10 05:18:29;;;;;;;4.93;3.05;;;12.90;99.90;;;;;;5021447;28;20132;-71
2022/06/10 05:20:55;;;;;;;5.38;3.08;;;12.90;99.90;;;;;;5020629;28;20065;-71
2022/06/10 05:23:24;;;;;;;8.02;3.00;;;13.10;99.90;;;;;;5024031;28;20022;-70
2022/06/10 05:25:51;;;;;;;5.90;3.17;;;13.00;99.90;;;;;;5023680;28;20105;-71
2022/06/10 05:28:18;;;;;;;7.63;3.42;;;13.10;99.90;;;;;;5024567;28;20022;-74
2022/06/10 05:30:44;;;;;;;10.63;3.53;;;13.20;99.90;;;;;;5024153;28;20026;-71
2022/06/10 05:33:11;;;;;;;9.35;3.60;;;13.20;99.90;;;;;;5006580;28;20038;-73
2022/06/10 05:35:37;;;;;;;5.78;3.38;;;13.20;99.90;;;;;;5024464;28;20471;-71
2022/06/10 05:38:03;;;;;;;15.85;3.45;;;13.30;99.90;;;;;;5024856;28;20380;-71
2022/06/10 05:40:44;;;;;;;18.13;3.33;;;13.30;99.90;;;;;;5022920;28;20063;-70
2022/06/10 05:43:09;;;;;;;4.32;2.75;;;13.40;99.90;;;;;;5022997;28;20030;-72
2022/06/10 05:45:35;;;;;;;7.05;3.33;;;13.40;99.90;;;;;;5024665;28;20117;-71
2022/06/10 05:48:02;;;;;;;5.60;3.25;;;13.50;99.90;;;;;;5022671;28;20026;-71
2022/06/10 05:50:36;;;;;;;5.35;2.58;;;13.60;99.90;;;;;;5023973;28;20036;-72
2022/06/10 05:53:03;;;;;;;;;;;13.70;99.90;;;;;;5025049;28;20718;-71
2022/06/10 05:55:31;;;;;;;20.85;3.83;;;13.70;99.90;;;;;;5023604;28;19905;-71
2022/06/10 05:57:56;;;;;;;10.18;3.53;;;13.80;99.90;;;;;;5024473;28;20040;-71
2022/06/10 06:00:27;;;;;;;11.15;3.50;;;13.90;99.90;;;;;;5024344;28;20025;-71
2022/06/10 06:02:53;;;;;;;8.40;3.78;;;13.90;99.90;;;;;;5024086;28;20026;-72
2022/06/10 06:05:20;;;;;;;5.25;2.55;;;14.00;99.90;;;;;;5024176;28;20097;-72
2022/06/10 06:07:48;;;;;;;6.53;2.38;;;14.10;99.90;;;;;;5020486;28;20028;-71
2022/06/10 06:10:17;;;;;;;8.82;2.85;;;14.20;99.90;;;;;;5022234;28;20044;-72
2022/06/10 06:12:43;;;;;;;11.65;3.05;;;14.30;99.90;;;;;;5023164;28;20025;-72
2022/06/10 06:15:10;;;;;;;9.75;2.45;;;14.40;99.90;;;;;;5023353;28;20038;-72
2022/06/10 06:17:36;;;;;;;9.18;2.75;;;14.50;99.90;;;;;;5023221;28;20216;-72
2022/06/10 06:20:03;;;;;;;3.33;2.42;;;14.60;99.90;;;;;;5023894;28;20070;-72
2022/06/10 06:22:29;;;;;;;4.43;2.28;;;14.70;99.90;;;;;;5023319;28;20022;-71
2022/06/10 06:24:54;;;;;;;15.45;2.45;;;14.80;99.90;;;;;;5023098;28;20060;-71
2022/06/10 06:27:20;;;;;;;4.50;2.17;;;15.00;99.90;;;;;;5022760;28;20032;-71
2022/06/10 06:29:46;;;;;;;3.58;2.25;;;15.10;99.90;;;;;;5022443;28;20026;-72
2022/06/10 06:32:15;;;;;;;6.07;2.60;;;15.20;99.90;;;;;;5023345;28;20026;-72
2022/06/10 06:34:41;;;;;;;10.18;1.92;;;15.30;99.90;;;;;;5022553;28;20037;-72
2022/06/10 06:37:13;;;;;;;3.28;2.08;;;15.40;99.90;;;;;;5023376;28;20042;-70
2022/06/10 06:39:40;;;;;;;2.67;1.70;;;15.50;99.90;;;;;;5023509;28;20022;-73
2022/06/10 06:42:06;;;;;;;4.53;2.03;;;15.60;99.90;;;;;;5023421;28;20065;-71
2022/06/10 06:44:31;;;;;;;4.03;1.75;;;15.70;99.90;;;;;;5023431;28;20037;-70
2022/06/10 06:46:57;;;;;;;7.38;1.77;;;15.80;99.90;;;;;;5023771;28;20512;-71
2022/06/10 06:49:26;;;;;;;1.63;0.98;;;15.90;99.90;;;;;;5020086;28;20044;-73
2022/06/10 06:51:54;;;;;;;2.60;1.58;;;16.00;99.90;;;;;;5020797;28;20034;-72
2022/06/10 06:54:20;;;;;;;7.63;1.70;;;16.10;99.90;;;;;;5003813;28;20029;-70
2022/06/10 06:56:46;;;;;;;3.45;1.65;;;16.20;99.90;;;;;;5020521;28;20038;-70
2022/06/10 06:59:12;;;;;;;5.47;1.77;;;16.30;99.90;;;;;;5021870;28;20080;-72
2022/06/10 07:01:38;;;;;;;9.95;1.88;;;16.40;99.90;;;;;;5021611;28;20056;-72
2022/06/10 07:04:05;;;;;;;2.85;1.20;;;16.40;99.90;;;;;;5022551;28;20053;-72
2022/06/10 07:06:35;;;;;;;14.02;1.60;;;16.50;99.90;;;;;;5022223;28;20529;-71
2022/06/10 07:09:00;;;;;;;3.88;1.55;;;16.60;99.90;;;;;;5022971;28;20022;-70
2022/06/10 07:11:26;;;;;;;7.18;1.92;;;16.70;99.90;;;;;;5022124;28;20036;-72
2022/06/10 07:13:52;;;;;;;7.47;1.55;;;16.80;99.90;;;;;;5023180;28;20030;-71
2022/06/10 07:16:20;;;;;;;7.15;1.50;;;16.90;99.90;;;;;;5003833;28;20050;-71
2022/06/10 07:18:46;;;;;;;4.00;1.92;;;16.90;99.90;;;;;;5022089;28;20029;-74
2022/06/10 07:21:11;;;;;;;7.85;1.88;;;17.10;99.90;;;;;;5022829;28;20033;-70
2022/06/10 07:23:37;;;;;;;4.15;1.73;;;17.10;99.90;;;;;;5021822;28;20045;-71
2022/06/10 07:26:03;;;;;;;4.75;1.48;;;17.10;99.90;;;;;;5022757;28;20049;-69
2022/06/10 07:28:30;;;;;;;2.78;1.25;;;17.20;99.90;;;;;;5022858;28;20030;-70
2022/06/10 07:30:56;;;;;;;2.30;1.42;;;17.30;99.90;;;;;;5021428;28;20033;-72
2022/06/10 07:33:21;;;;;;;12.52;1.75;;;17.40;99.90;;;;;;5022871;28;20036;-72
2022/06/10 07:35:49;;;;;;;7.47;1.10;;;17.40;99.90;;;;;;5022227;28;20065;-73
2022/06/10 07:38:14;;;;;;;3.40;1.50;;;17.50;99.90;;;;;;5021569;28;20041;-70
2022/06/10 07:43:28;;;;;;;5.22;1.67;;;17.70;99.90;;;;;;5022605;28;20036;-69
2022/06/10 07:45:54;;;;;;;6.20;1.75;;;17.80;99.90;;;;;;5020220;28;20064;-72
2022/06/10 07:48:21;;;;;;;6.18;1.77;;;17.80;99.90;;;;;;5021497;28;20059;-70
2022/06/10 07:50:49;;;;;;;2.80;1.08;;;17.80;99.90;;;;;;5019142;28;20088;-71
2022/06/10 07:53:16;;;;;;;3.67;1.67;;;17.90;99.90;;;;;;5021034;28;21070;-73
2022/06/10 07:55:48;;;;;;;6.55;1.58;;;18.00;99.90;;;;;;5020596;28;20536;-71
2022/06/10 07:58:18;;;;;;;4.40;1.08;;;18.10;99.90;;;;;;5018833;28;20064;-71
2022/06/10 08:00:44;;;;;;;1.58;1.20;;;18.10;99.90;;;;;;5021406;28;20050;-70
2022/06/10 08:03:10;;;;;;;1.75;1.08;;;18.20;99.90;;;;;;5021524;28;20022;-73
2022/06/10 08:05:36;;;;;;;3.03;1.67;;;18.30;99.90;;;;;;5018102;28;20044;-69
2022/06/10 08:08:02;;;;;;;1.95;1.45;;;18.40;99.90;;;;;;5020521;28;20112;-72
2022/06/10 08:10:32;;;;;;;6.78;1.40;;;18.50;99.90;;;;;;5003495;28;20026;-69
2022/06/10 08:12:58;;;;;;;6.28;1.70;;;18.60;99.90;;;;;;5019754;28;20050;-70
2022/06/10 08:15:25;;;;;;;3.75;1.42;;;18.70;99.90;;;;;;5020798;28;20030;-69
2022/06/10 08:17:51;;;;;;;4.65;1.95;;;18.80;99.90;;;;;;5021781;28;20042;-71
2022/06/10 08:23:19;;;;;;;7.70;1.67;;;18.90;99.90;;;;;;5022100;28;20056;-70
2022/06/10 08:25:45;;;;;;;8.27;2.13;;;19.00;99.90;;;;;;5003814;28;20065;-69
2022/06/10 08:28:11;;;;;;;5.50;2.08;;;19.10;99.90;;;;;;5017858;28;20037;-73
2022/06/10 08:30:37;;;;;;;4.60;1.85;;;19.20;99.90;;;;;;5021270;28;20057;-68
2022/06/10 08:33:03;;;;;;;7.78;2.70;;;19.20;99.90;;;;;;5021533;28;20026;-71
2022/06/10 08:35:34;;;;;;;6.03;2.08;;;19.30;99.90;;;;;;5022925;28;20037;-71
2022/06/10 08:38:03;;;;;;;5.32;2.53;;;19.30;99.90;;;;;;5025241;28;20052;-70
2022/06/10 08:40:57;;;;;;;5.57;2.58;;;19.20;99.90;;;;;;5024637;28;20065;-70
2022/06/10 08:43:51;;;;;;;19.67;2.88;;;19.10;99.90;;;;;;5023700;28;20029;-70
2022/06/10 08:46:22;;;;;;;12.32;4.15;;;19.30;99.90;;;;;;5024178;28;20088;-71
2022/06/10 08:48:59;;;;;;;6.03;3.22;;;19.40;99.90;;;;;;5024040;28;20026;-72
2022/06/10 08:51:41;;;;;;;4.95;2.70;;;19.60;99.90;;;;;;5007372;28;20479;-69
2022/06/10 08:54:20;;;;;;;16.27;2.20;;;19.70;99.90;;;;;;5024841;28;20033;-69
2022/06/10 08:56:53;;;;;;;4.50;2.28;;;19.70;99.90;;;;;;5024786;28;20034;-69
2022/06/10 08:59:36;;;;;;;11.32;3.45;;;19.60;99.90;;;;;;5024294;28;20061;-69
2022/06/10 09:02:20;;;;;;;6.85;3.13;;;19.50;99.90;;;;;;5022536;28;20045;-72
2022/06/10 09:05:02;;;;;;;12.85;3.35;;;19.40;99.90;;;;;;5024237;28;20038;-71
2022/06/10 09:07:41;;;;;;;6.53;3.72;;;19.50;99.90;;;;;;5024405;28;20475;-70
2022/06/10 09:10:27;;;;;;;10.43;4.20;;;19.50;99.90;;;;;;5007772;28;20045;-69
2022/06/10 09:13:29;;;;;;;9.40;4.50;;;19.60;99.90;;;;;;5024158;28;20034;-70
2022/06/10 09:16:04;;;;;;;7.95;3.72;;;19.70;99.90;;;;;;5024637;28;20485;-72
2022/06/10 09:19:13;;;;;;;7.18;2.85;;;19.90;99.90;;;;;;5005152;28;20046;-70
2022/06/10 09:22:04;;;;;;;7.32;2.60;;;19.80;99.90;;;;;;5005224;28;20503;-69
2022/06/10 09:25:00;;;;;;;6.18;2.22;;;19.90;99.90;;;;;;5004171;28;20074;-69
2022/06/10 09:27:31;;;;;;;;;;;19.90;99.90;;;;;;5004066;28;20034;-72
2022/06/10 09:29:57;;;;;;;7.35;2.55;;;20.10;99.90;;;;;;5002767;28;19939;-69
2022/06/10 09:32:56;;;;;;;5.90;1.85;;;20.30;99.90;;;;;;5002673;28;20042;-74
2022/06/10 09:35:31;;;;;;;7.93;2.80;;;20.40;99.90;;;;;;5002529;28;20023;-69
2022/06/10 09:38:13;;;;;;;5.70;1.88;;;20.50;99.90;;;;;;5000704;28;20053;-71
2022/06/10 09:41:28;;;;;;;3.40;1.80;;;20.50;99.90;;;;;;5001609;28;20026;-70
2022/06/10 09:44:05;;;;;;;9.20;3.03;;;20.50;99.90;;;;;;4997542;28;20050;-71
2022/06/10 09:46:53;;;;;;;6.28;2.88;;;20.50;99.90;;;;;;5002878;28;20034;-71
2022/06/10 09:50:04;;;;;;;4.82;2.60;;;20.60;99.90;;;;;;5002270;28;20030;-67
2022/06/10 09:52:39;;;;;;;5.43;3.28;;;20.70;99.90;;;;;;4996709;28;20046;-74
2022/06/10 09:55:42;;;;;;;5.93;2.60;;;20.70;99.90;;;;;;5004930;28;20022;-71
2022/06/10 09:58:38;;;;;;;4.78;2.60;;;20.70;99.90;;;;;;5003435;28;20041;-70
2022/06/10 10:01:09;;;;;;;10.90;2.25;;;20.70;99.90;;;;;;5004834;28;20026;-73
2022/06/10 10:04:00;;;;;;;6.35;2.38;;;20.70;99.90;;;;;;5003791;28;20475;-66
2022/06/10 10:06:57;;;;;;;2.65;1.70;;;20.60;99.90;;;;;;5002260;28;21019;-73
2022/06/10 10:09:51;;;;;;;3.42;1.67;;;20.50;99.90;;;;;;5002656;28;20034;-72
2022/06/10 10:12:26;;;;;;;1.73;0.95;;;20.30;99.90;;;;;;5001492;28;20140;-71
2022/06/10 10:15:21;;;;;;;4.18;1.08;;;20.30;99.90;;;;;;5002703;28;20029;-69
2022/06/10 10:18:08;;;;;;;3.92;1.48;;;20.20;99.90;;;;;;5016015;28;20041;-69
2022/06/10 10:20:58;;;;;;;2.05;1.20;;;20.30;99.90;;;;;;5023856;28;20030;-69
2022/06/10 10:23:31;;;;;;;1.92;1.10;;;20.50;99.90;;;;;;5023654;28;20026;-69
2022/06/10 10:26:04;;;;;;;2.40;0.90;;;20.50;99.90;;;;;;5021888;28;20040;-72
2022/06/10 10:28:34;;;;;;;3.55;1.27;;;20.60;99.90;;;;;;5023573;28;20045;-67
2022/06/10 10:31:24;;;;;;;4.28;0.90;;;20.80;99.90;;;;;;5023439;28;20076;-68
2022/06/10 10:33:50;;;;;;;2.65;1.30;;;20.80;99.90;;;;;;5004782;28;20060;-69
2022/06/10 10:36:44;;;;;;;3.78;1.30;;;21.00;99.90;;;;;;5021606;28;20037;-74
2022/06/10 10:39:31;;;;;;;8.13;1.50;;;20.90;99.90;;;;;;5000197;28;20075;-76
2022/06/10 10:42:05;;;;;;;3.35;1.40;;;20.80;99.90;;;;;;5017839;28;20060;-68
2022/06/10 10:44:38;;;;;;;3.47;1.65;;;20.80;99.90;;;;;;5020959;28;20026;-69
2022/06/10 10:47:09;;;;;;;4.78;1.20;;;20.70;99.90;;;;;;5021481;28;20042;-70
2022/06/10 10:49:42;;;;;;;1.35;0.90;;;20.70;99.90;;;;;;5021165;28;20293;-72
2022/06/10 10:52:21;;;;;;;1.60;1.20;;;20.70;99.90;;;;;;5022271;28;20481;-69
2022/06/10 10:54:52;;;;;;;2.03;1.00;;;20.70;99.90;;;;;;5018484;28;20006;-69
2022/06/10 10:57:29;;;;;;;5.13;1.48;;;20.80;99.90;;;;;;5022149;28;20052;-72
2022/06/10 11:00:15;;;;;;;4.70;1.27;;;20.80;99.90;;;;;;5022689;28;20040;-71
2022/06/10 11:02:57;;;;;;;9.95;2.00;;;20.80;99.90;;;;;;5004153;28;20045;-70
2022/06/10 11:05:35;;;;;;;5.20;2.28;;;20.80;99.90;;;;;;5023077;28;20050;-71
2022/06/10 11:08:23;;;;;;;9.70;2.35;;;20.80;99.90;;;;;;5021914;28;20065;-70
2022/06/10 11:11:02;;;;;;;6.63;2.65;;;20.90;99.90;;;;;;5022478;28;20036;-72
2022/06/10 11:13:36;;;;;;;4.57;1.95;;;21.00;99.90;;;;;;5020322;28;20280;-71
2022/06/10 11:16:23;;;;;;;2.72;1.67;;;21.20;99.90;;;;;;5022361;28;20045;-69
2022/06/10 11:18:52;;;;;;;2.00;1.35;;;21.50;99.90;;;;;;5020835;28;21367;-73
2022/06/10 11:21:20;;;;;;;3.38;1.92;;;21.70;99.90;;;;;;5022593;28;20018;-70
2022/06/10 11:23:56;;;;;;;5.25;1.58;;;21.70;99.90;;;;;;5022939;28;20037;-71
2022/06/10 11:26:25;;;;;;;4.57;2.38;;;21.70;99.90;;;;;;5022066;28;20058;-71
2022/06/10 11:28:59;;;;;;;9.25;2.08;;;21.60;99.90;;;;;;5022490;28;20493;-69
2022/06/10 11:31:40;;;;;;;5.35;2.50;;;21.30;99.90;;;;;;5022872;28;20403;-70
2022/06/10 11:34:17;;;;;;;3.15;1.90;;;21.20;99.90;;;;;;5022621;28;20100;-70
2022/06/10 11:36:50;;;;;;;5.72;1.90;;;20.80;99.90;;;;;;5022632;28;20014;-69
2022/06/10 11:39:20;;;;;;;4.53;2.40;;;20.60;99.90;;;;;;5022625;28;20018;-70
2022/06/10 11:42:16;;;;;;;5.53;2.35;;;20.30;99.90;;;;;;5022455;28;20026;-71
2022/06/10 11:44:52;;;;;;;3.60;2.17;;;20.20;99.90;;;;;;5013340;28;20613;-68
2022/06/10 11:47:40;;;;;;;10.75;2.83;;;20.10;99.90;;;;;;5022163;28;20093;-73
2022/06/10 11:50:19;;;;;;;10.00;2.72;;;20.10;99.90;;;;;;5021632;28;20116;-67
2022/06/10 11:53:31;;;;;;;8.55;2.67;;;20.10;99.90;;;;;;5020950;28;20030;-73
2022/06/10 12:01:36;;;;;;;4.30;2.45;;;20.50;99.90;;;;;;5019005;28;20033;-70
2022/06/10 12:04:19;;;;;;;11.82;2.20;;;20.60;99.90;;;;;;5020246;28;20033;-71
2022/06/10 12:06:55;;;;;;;3.60;2.00;;;20.50;99.90;;;;;;5020412;28;20098;-70
2022/06/10 12:09:42;;;;;;;5.13;2.00;;;20.50;99.90;;;;;;5020759;28;20122;-70
2022/06/10 12:12:18;;;;;;;5.25;2.40;;;20.40;99.90;;;;;;5024761;28;20498;-75
2022/06/10 12:14:51;;;;;;;3.30;1.60;;;20.20;99.90;;;;;;5025748;28;20036;-72
2022/06/10 12:17:39;;;;;;;3.60;1.92;;;20.10;99.90;;;;;;5001024;28;20058;-70
2022/06/10 12:20:11;;;;;;;5.10;2.25;;;20.10;99.90;;;;;;5001653;28;20042;-71
2022/06/10 12:22:37;;;;;;;7.32;2.35;;;20.00;99.90;;;;;;5002430;28;20049;-70
2022/06/10 12:25:17;;;;;;;4.43;2.15;;;20.00;99.90;;;;;;5004521;28;20093;-68
2022/06/10 12:28:08;;;;;;;5.55;2.45;;;20.00;99.90;;;;;;5004736;28;20045;-69
2022/06/10 12:30:53;;;;;;;5.70;2.10;;;20.10;99.90;;;;;;5004319;28;20022;-71
2022/06/10 12:33:29;;;;;;;9.15;2.42;;;20.20;99.90;;;;;;5004141;28;20022;-74
2022/06/10 12:35:56;;;;;;;7.38;3.05;;;20.10;99.90;;;;;;5005780;28;20053;-73
2022/06/10 12:38:26;;;;;;;6.68;2.75;;;20.10;99.90;;;;;;5004107;28;20030;-69
2022/06/10 12:41:13;;;;;;;8.77;3.05;;;20.00;99.90;;;;;;5003952;28;20027;-73
2022/06/10 12:44:00;;;;;;;4.22;2.55;;;20.00;99.90;;;;;;5004273;28;20030;-69
2022/06/10 12:46:53;;;;;;;9.15;2.67;;;20.00;99.90;;;;;;5003591;28;20101;-69
2022/06/10 12:49:37;;;;;;;6.93;2.72;;;20.30;99.90;;;;;;5000026;28;20046;-68
2022/06/10 12:52:20;;;;;;;3.17;2.00;;;20.60;99.90;;;;;;5004610;28;20093;-69
2022/06/10 12:55:00;;;;;;;7.00;2.53;;;21.10;99.90;;;;;;5004615;28;20030;-73
2022/06/10 12:57:42;;;;;;;4.60;2.22;;;21.80;99.90;;;;;;5005296;28;20042;-68
2022/06/10 13:00:24;;;;;;;4.65;2.60;;;22.10;99.90;;;;;;5003744;28;20041;-68
2022/06/10 13:02:50;;;;;;;4.75;2.17;;;22.30;99.90;;;;;;5004387;28;20714;-68
2022/06/10 13:05:43;;;;;;;11.02;2.28;;;22.30;99.90;;;;;;5002246;28;20034;-69
2022/06/10 13:08:48;;;;;;;5.00;2.10;;;22.30;99.90;;;;;;5004728;28;20121;-69
2022/06/10 13:11:30;;;;;;;4.82;2.40;;;22.10;99.90;;;;;;4983006;28;20058;-70
2022/06/10 13:14:33;;;;;;;7.68;2.22;;;21.90;99.90;;;;;;5003756;28;20049;-69
2022/06/10 13:16:58;;;;;;;3.60;2.30;;;21.80;99.90;;;;;;4954210;28;20050;-68
2022/06/10 13:19:43;;;;;;;8.57;3.25;;;21.90;99.90;;;;;;5004180;28;20049;-70
2022/06/10 13:22:19;;;;;;;4.68;2.20;;;21.70;99.90;;;;;;5001913;28;20142;-69
2022/06/10 13:25:07;;;;;;;8.50;2.75;;;21.50;99.90;;;;;;5005132;28;20026;-70
2022/06/10 13:27:47;;;;;;;7.90;2.97;;;21.40;99.90;;;;;;4994372;28;20047;-68
2022/06/10 13:30:24;;;;;;;4.80;2.53;;;21.20;99.90;;;;;;5004921;28;20038;-68
2022/06/10 13:32:56;;;;;;;9.27;3.65;;;21.20;99.90;;;;;;5001036;28;20026;-69
2022/06/10 13:35:26;;;;;;;5.15;2.92;;;21.30;99.90;;;;;;5004226;28;20081;-69
2022/06/10 13:38:22;;;;;;;4.35;1.90;;;21.30;99.90;;;;;;5004822;28;20026;-69